This is the latest recevied weather packets stored in our database for station/object KN4MGS. If no packets are shown the sender has not sent any weather packets the latest 1 day(s).
| Time | Temp. | Humidity | Pressure | Rain* | Wind** | Luminosity | Snow |
|---|---|---|---|---|---|---|---|
| 1778048486 | 18.33° C | 79% | 1017.6 hPa | 0 mm | - | 0 W/m² | - |
| 1778048182 | 18.33° C | 79% | 1018.1 hPa | 0 mm | - | 0 W/m² | - |
| 1778047578 | 18.33° C | 78% | 1018.2 hPa | 0 mm | - | 0 W/m² | - |
| 1778047275 | 18.33° C | 78% | 1018.1 hPa | 0 mm | - | 0 W/m² | - |
| 1778046972 | 18.33° C | 77% | 1018.1 hPa | 0 mm | - | 0 W/m² | - |
| 1778046366 | 18.89° C | 76% | 1018.1 hPa | 0 mm | - | 0 W/m² | - |
| 1778045458 | 18.89° C | 75% | 1018 hPa | 0 mm | - | 0 W/m² | - |
| 1778044550 | 19.44° C | 74% | 1017.9 hPa | 0 mm | - | 0 W/m² | - |
| 1778043642 | 19.44° C | 74% | 1018.4 hPa | 0 mm | - | 0 W/m² | - |
| 1778043338 | 19.44° C | 74% | 1018.2 hPa | 0 mm | - | 0 W/m² | - |
| 1778043035 | 19.44° C | 74% | 1018 hPa | 0 mm | - | 0 W/m² | - |
| 1778042733 | 19.44° C | 75% | 1018.1 hPa | 0 mm | - | 0 W/m² | - |
| 1778041825 | 19.44° C | 74% | 1018.2 hPa | 0 mm | - | 0 W/m² | - |
| 1778041524 | 19.44° C | 74% | 1018.2 hPa | 0 mm | - | 0 W/m² | - |
| 1778040920 | 19.44° C | 74% | 1017.9 hPa | 0 mm | - | 0 W/m² | - |
| 1778040616 | 19.44° C | 73% | 1017.8 hPa | 0 mm | - | 0 W/m² | - |
| 1778040314 | 19.44° C | 73% | 1017.7 hPa | 0 mm | - | 0 W/m² | - |
| 1778040010 | 19.44° C | 72% | 1017.9 hPa | 0 mm | - | 0 W/m² | - |
| 1778039707 | 19.44° C | 72% | 1017.6 hPa | 0 mm | - | 0 W/m² | - |
| 1778039101 | 19.44° C | 72% | 1017.8 hPa | 0 mm | - | 0 W/m² | - |
| 1778038798 | 18.89° C | 73% | 1017.7 hPa | 0 mm | - | 0 W/m² | - |
| 1778037585 | 17.78° C | 75% | 1017.7 hPa | 0 mm | - | 0 W/m² | - |
| 1778037283 | 14.44° C | 85% | 1017.7 hPa | 0 mm | - | 0 W/m² | - |
| 1778036980 | 14.44° C | 87% | 1017.8 hPa | 0 mm | - | 0 W/m² | - |
| 1778036375 | 14.44° C | 85% | 1017.5 hPa | 0 mm | - | 0 W/m² | - |
* Rain latest hour (hover to see other rain measurements)
** Current wind speed in m/s (hover to see current wind gust speed)